Time;durP1;ratioP1;P1;durP2;ratioP2;P2;SDS_P1;SDS_P2;PMS_P1;PMS_P2;Temp;Humidity;BMP_temperature;BMP_pressure;BME280_temperature;BME280_humidity;BME280_pressure;Samples;Min_cycle;Max_cycle;Signal;HPM_P1;HPM_P2
2022/07/17 00:01:05;;;;;;;8.07;2.28;;;;;;;10.18;100.00;155083.84;5004670;28;20053;-76
2022/07/17 00:03:31;;;;;;;8.40;2.20;;;;;;;10.10;100.00;155064.59;5001538;28;20060;-77
2022/07/17 00:05:56;;;;;;;13.45;2.30;;;;;;;9.97;100.00;155030.00;5016895;28;20161;-77
2022/07/17 00:08:22;;;;;;;8.07;2.35;;;;;;;9.91;100.00;155017.16;5020046;28;20038;-77
2022/07/17 00:10:47;;;;;;;15.30;2.55;;;;;;;9.91;100.00;155015.88;4997163;28;20246;-77
2022/07/17 00:13:13;;;;;;;6.72;2.08;;;;;;;9.91;100.00;155017.16;5008767;28;20042;-77
2022/07/17 00:15:39;;;;;;;11.48;2.20;;;;;;;9.93;100.00;155022.28;4992755;28;20042;-78
2022/07/17 00:18:06;;;;;;;10.13;2.15;;;;;;;9.86;100.00;155003.06;5009797;28;20048;-78
2022/07/17 00:20:32;;;;;;;8.63;2.15;;;;;;;9.81;100.00;154991.47;5008519;28;20018;-77
2022/07/17 00:22:57;;;;;;;9.75;2.45;;;;;;;9.78;100.00;154983.81;5002219;28;20029;-79
2022/07/17 00:25:24;;;;;;;12.93;2.40;;;;;;;9.75;100.00;154977.38;5009955;28;20041;-77
2022/07/17 00:27:50;;;;;;;11.05;2.70;;;;;;;9.74;100.00;154973.56;5009853;28;20036;-77
2022/07/17 00:30:16;;;;;;;9.30;2.60;;;;;;;9.69;100.00;154960.75;4986958;28;20405;-78
2022/07/17 00:32:42;;;;;;;8.23;2.25;;;;;;;9.73;100.00;154970.97;5010448;28;20097;-78
2022/07/17 00:35:08;;;;;;;8.80;2.35;;;;;;;9.67;100.00;154956.88;5005280;28;20030;-77
2022/07/17 00:37:42;;;;;;;8.45;2.42;;;;;;;9.63;100.00;154945.38;5007370;28;20124;-79
2022/07/17 00:40:10;;;;;;;8.90;2.10;;;;;;;9.61;100.00;154940.25;4997827;28;20022;-78
2022/07/17 00:42:38;;;;;;;8.48;2.25;;;;;;;9.57;100.00;154931.25;5007510;28;20038;-77
2022/07/17 00:45:04;;;;;;;9.32;2.78;;;;;;;9.58;100.00;154933.78;5009928;28;20049;-78
2022/07/17 00:47:30;;;;;;;10.75;2.47;;;;;;;9.52;100.00;154919.69;5009169;28;20030;-77
2022/07/17 00:49:56;;;;;;;10.20;2.40;;;;;;;9.49;100.00;154912.03;5028583;28;20034;-77
2022/07/17 00:52:21;;;;;;;8.00;2.03;;;;;;;9.52;100.00;154918.41;5027822;28;20050;-75
2022/07/17 00:54:47;;;;;;;8.80;2.17;;;;;;;9.49;100.00;154910.72;5011629;28;20036;-77
2022/07/17 00:57:15;;;;;;;8.98;2.13;;;;;;;9.45;100.00;154901.72;5010295;28;20500;-77
2022/07/17 00:59:42;;;;;;;11.25;2.53;;;;;;;9.43;100.00;154896.59;5025056;28;20062;-75
2022/07/17 01:02:11;;;;;;;10.73;2.42;;;;;;;9.40;100.00;154887.63;5003002;28;20061;-76
2022/07/17 01:04:37;;;;;;;5.95;2.22;;;;;;;9.37;100.00;154879.97;4990834;28;20033;-76
2022/07/17 01:07:05;;;;;;;9.02;2.17;;;;;;;9.32;100.00;154869.72;5005924;28;20385;-77
2022/07/17 01:09:31;;;;;;;12.00;2.35;;;;;;;9.39;100.00;154886.38;5007256;28;20068;-77
2022/07/17 01:11:57;;;;;;;13.60;2.58;;;;;;;9.35;100.00;154876.13;4990256;28;20069;-78
2022/07/17 01:14:24;;;;;;;12.18;2.63;;;;;;;9.32;100.00;154869.72;4988960;28;20092;-75
2022/07/17 01:16:51;;;;;;;11.45;2.13;;;;;;;9.32;100.00;154868.41;5005915;28;20037;-76
2022/07/17 01:19:18;;;;;;;7.57;2.10;;;;;;;9.31;100.00;154865.88;5006049;28;20434;-77
2022/07/17 01:21:46;;;;;;;11.90;2.10;;;;;;;9.26;100.00;154854.31;5008711;28;20037;-77
2022/07/17 01:24:12;;;;;;;14.25;2.72;;;;;;;9.26;100.00;154853.03;4982254;28;20045;-77
2022/07/17 01:26:45;;;;;;;12.48;2.60;;;;;;;9.24;100.00;154847.91;5019224;28;20038;-76
2022/07/17 01:29:13;;;;;;;11.20;2.35;;;;;;;9.19;100.00;154835.09;5022353;28;20030;-77
2022/07/17 01:31:40;;;;;;;13.70;2.60;;;;;;;9.18;100.00;154833.81;5014748;28;20039;-77
2022/07/17 01:34:07;;;;;;;8.02;2.08;;;;;;;9.14;100.00;154823.56;5007123;28;20042;-77
2022/07/17 01:36:33;;;;;;;12.30;2.60;;;;;;;9.08;100.00;154809.47;5010193;28;20041;-77
2022/07/17 01:38:58;;;;;;;13.63;2.22;;;;;;;9.01;100.00;154791.53;4976744;28;20033;-76
2022/07/17 01:41:24;;;;;;;12.55;2.10;;;;;;;8.90;100.00;154763.31;5003159;28;20492;-77
2022/07/17 01:43:50;;;;;;;11.57;2.35;;;;;;;8.96;100.00;154779.97;5000507;28;20034;-78
2022/07/17 01:46:15;;;;;;;11.32;2.65;;;;;;;8.93;100.00;154772.28;4989635;28;20038;-76
2022/07/17 01:48:41;;;;;;;10.00;2.35;;;;;;;8.90;100.00;154764.59;5005820;28;20095;-77
2022/07/17 01:51:07;;;;;;;7.55;2.10;;;;;;;8.92;100.00;154768.44;4970280;28;20609;-77
2022/07/17 01:53:32;;;;;;;7.35;2.33;;;;;;;8.87;100.00;154755.63;5004629;28;20045;-78
2022/07/17 01:55:58;;;;;;;11.07;2.53;;;;;;;8.89;100.00;154760.75;5031148;28;20034;-78
2022/07/17 01:58:24;;;;;;;9.95;2.63;;;;;;;8.85;100.00;154750.50;5031721;28;20048;-78
2022/07/17 02:00:50;;;;;;;6.60;2.10;;;;;;;8.92;100.00;154769.72;5003986;28;20425;-78
2022/07/17 02:03:17;;;;;;;12.00;2.47;;;;;;;8.95;100.00;154777.41;4986272;28;20049;-78
2022/07/17 02:05:42;;;;;;;9.93;2.58;;;;;;;8.91;100.00;154767.19;5019021;28;20048;-78
2022/07/17 02:08:08;;;;;;;10.63;2.45;;;;;;;9.06;100.00;154804.34;5017809;28;20116;-77
2022/07/17 02:10:34;;;;;;;11.57;2.72;;;;;;;9.12;100.00;154818.44;4995798;28;20042;-78
2022/07/17 02:12:59;;;;;;;6.88;2.38;;;;;;;9.15;100.00;154826.09;5015512;28;20086;-78
2022/07/17 02:15:25;;;;;;;7.95;2.40;;;;;;;9.23;100.00;154845.34;4984615;28;20042;-78
2022/07/17 02:17:51;;;;;;;10.60;2.97;;;;;;;9.37;100.00;154879.97;5025871;28;20073;-78
2022/07/17 02:20:17;;;;;;;12.80;2.40;;;;;;;9.41;100.00;154891.50;5013528;28;20029;-77
2022/07/17 02:22:43;;;;;;;10.07;2.58;;;;;;;9.49;100.00;154912.03;5007899;28;20092;-78
2022/07/17 02:25:09;;;;;;;13.25;2.58;;;;;;;9.53;100.00;154922.28;5019223;28;20034;-77
2022/07/17 02:27:35;;;;;;;12.40;2.60;;;;;;;9.53;100.00;154920.97;4995454;28;20048;-78
2022/07/17 02:30:03;;;;;;;12.98;2.40;;;;;;;9.59;100.00;154936.38;5023244;28;20034;-78
2022/07/17 02:32:29;;;;;;;13.65;2.50;;;;;;;9.73;100.00;154970.97;4995394;28;20103;-78
2022/07/17 02:34:55;;;;;;;8.02;2.17;;;;;;;9.81;100.00;154990.22;5012353;28;20413;-77
2022/07/17 02:37:20;;;;;;;9.07;2.13;;;;;;;9.72;100.00;154969.72;5018387;28;20049;-76
2022/07/17 02:39:52;;;;;;;9.80;2.33;;;;;;;9.85;100.00;155000.47;5007385;28;20080;-78
2022/07/17 02:42:26;;;;;;;10.70;2.28;;;;;;;9.92;100.00;155019.69;5011741;28;20046;-77
2022/07/17 02:44:53;;;;;;;9.32;2.20;;;;;;;9.95;100.00;155026.13;5018309;28;20092;-78
2022/07/17 02:47:27;;;;;;;11.75;2.30;;;;;;;9.94;100.00;155024.88;5015833;28;20040;-76
2022/07/17 02:49:53;;;;;;;9.65;2.35;;;;;;;9.99;100.00;155035.13;5003491;28;20426;-77
2022/07/17 02:52:19;;;;;;;11.52;2.53;;;;;;;9.98;100.00;155033.81;4987451;28;20045;-78
2022/07/17 02:54:44;;;;;;;11.98;2.75;;;;;;;10.07;100.00;155055.63;4989454;28;20548;-76
2022/07/17 02:57:10;;;;;;;8.25;2.17;;;;;;;10.13;100.00;155071.00;5002784;28;20038;-77
2022/07/17 02:59:36;;;;;;;9.75;2.63;;;;;;;10.16;100.00;155078.72;5026008;28;20034;-77
2022/07/17 03:02:02;;;;;;;13.18;2.63;;;;;;;10.21;100.00;155091.56;5007231;28;20068;-76
2022/07/17 03:04:28;;;;;;;6.22;1.90;;;;;;;10.29;100.00;155112.06;5020624;28;20061;-79
2022/07/17 03:06:53;;;;;;;11.52;2.20;;;;;;;10.30;100.00;155114.69;5001027;28;20080;-77
2022/07/17 03:09:19;;;;;;;8.02;2.28;;;;;;;10.38;100.00;155133.94;5002051;28;20034;-79
2022/07/17 03:11:44;;;;;;;7.75;2.10;;;;;;;10.33;100.00;155121.09;5016432;28;20493;-76
2022/07/17 03:14:10;;;;;;;11.90;2.75;;;;;;;10.46;100.00;155153.16;4989937;28;20517;-77
2022/07/17 03:16:36;;;;;;;7.97;2.03;;;;;;;10.53;100.00;155171.13;5000417;28;20101;-77
2022/07/17 03:19:02;;;;;;;11.13;2.30;;;;;;;10.60;100.00;155189.06;5006504;28;20038;-77
2022/07/17 03:21:27;;;;;;;11.20;2.30;;;;;;;10.58;100.00;155182.66;4992688;28;20387;-78
2022/07/17 03:23:53;;;;;;;10.80;2.25;;;;;;;10.63;100.00;155196.78;4997435;28;20076;-77
2022/07/17 03:26:18;;;;;;;8.60;2.05;;;;;;;10.70;100.00;155213.47;5007782;28;20100;-77
2022/07/17 03:28:44;;;;;;;11.07;2.53;;;;;;;10.72;100.00;155218.59;5015981;28;20058;-77
2022/07/17 03:31:09;;;;;;;8.32;2.25;;;;;;;10.74;100.00;155223.72;4997594;28;20072;-77
2022/07/17 03:33:35;;;;;;;11.75;2.88;;;;;;;10.70;100.00;155213.47;4993597;28;20042;-79
2022/07/17 03:36:00;;;;;;;6.93;1.80;;;;;;;10.71;100.00;155217.28;5010556;28;20049;-77
2022/07/17 03:38:26;;;;;;;10.82;2.65;;;;;;;10.69;100.00;155212.16;5005974;28;20034;-78
2022/07/17 03:40:51;;;;;;;8.35;2.47;;;;;;;10.71;100.00;155216.03;4982194;28;20497;-78
2022/07/17 03:43:17;;;;;;;11.52;2.53;;;;;;;10.77;100.00;155231.41;5001948;28;20038;-77
2022/07/17 03:45:42;;;;;;;7.38;2.10;;;;;;;10.79;100.00;155236.53;4995203;28;20061;-77
2022/07/17 03:48:08;;;;;;;12.13;2.40;;;;;;;10.85;100.00;155251.97;5025126;28;20904;-77
2022/07/17 03:50:34;;;;;;;7.78;2.17;;;;;;;10.84;100.00;155249.38;5026711;28;20489;-77
2022/07/17 03:52:59;;;;;;;7.53;2.33;;;;;;;10.85;100.00;155250.66;5001697;28;20121;-76
2022/07/17 03:55:25;;;;;;;11.43;2.70;;;;;;;10.83;100.00;155245.50;4995761;28;20497;-75
2022/07/17 03:57:50;;;;;;;10.05;2.05;;;;;;;10.87;100.00;155255.81;5017007;28;20029;-76
2022/07/17 04:00:16;;;;;;;9.70;2.00;;;;;;;10.99;100.00;155285.31;4998969;28;20052;-78
2022/07/17 04:02:42;;;;;;;8.32;2.10;;;;;;;11.00;100.00;155289.19;5012255;28;20109;-76
2022/07/17 04:05:09;;;;;;;6.97;2.10;;;;;;;11.14;100.00;155322.53;5020180;28;20045;-78
2022/07/17 04:07:38;;;;;;;10.85;2.20;;;;;;;11.23;100.00;155346.91;5019634;28;20045;-76
2022/07/17 04:10:04;;;;;;;9.77;2.47;;;;;;;11.33;100.00;155370.03;5010807;28;20038;-78
2022/07/17 04:12:30;;;;;;;7.05;2.05;;;;;;;11.38;100.00;155384.16;4997501;28;20092;-78
2022/07/17 04:14:56;;;;;;;7.55;1.77;;;;;;;11.42;100.00;155393.13;5010921;28;20041;-78
2022/07/17 04:17:21;;;;;;;9.63;2.00;;;;;;;11.48;100.00;155408.53;5007511;28;20867;-78
2022/07/17 04:19:48;;;;;;;9.70;2.03;;;;;;;11.52;100.00;155417.53;5014412;28;20472;-78
2022/07/17 04:22:13;;;;;;;13.77;2.33;;;;;;;11.74;100.00;155472.72;5009497;28;20041;-78
2022/07/17 04:24:39;;;;;;;8.40;2.10;;;;;;;11.70;100.00;155463.75;5010500;28;20076;-79
2022/07/17 04:27:05;;;;;;;12.60;2.67;;;;;;;11.74;100.00;155472.72;5032492;28;20105;-77
2022/07/17 04:29:31;;;;;;;5.90;2.03;;;;;;;11.80;100.00;155489.41;5014522;28;20506;-78
2022/07/17 04:31:57;;;;;;;9.80;2.10;;;;;;;11.86;100.00;155504.78;5018587;28;20041;-77
2022/07/17 04:34:23;;;;;;;9.10;2.03;;;;;;;11.86;100.00;155504.78;4988643;28;20041;-79
2022/07/17 04:36:48;;;;;;;10.05;2.15;;;;;;;11.91;100.00;155515.16;4995813;28;20044;-78
2022/07/17 04:39:14;;;;;;;7.47;2.15;;;;;;;11.93;100.00;155521.56;5012941;28;20045;-78
2022/07/17 04:41:39;;;;;;;8.02;2.05;;;;;;;11.93;100.00;155521.56;5004858;28;20057;-78
2022/07/17 04:44:05;;;;;;;9.32;2.35;;;;;;;12.00;100.00;155539.53;5007656;28;20069;-77
2022/07/17 04:46:30;;;;;;;9.00;1.88;;;;;;;12.03;100.00;155547.22;5010932;28;20038;-78
2022/07/17 04:48:56;;;;;;;9.20;2.00;;;;;;;12.10;100.00;155562.66;4990643;28;20695;-77
2022/07/17 04:51:21;;;;;;;8.30;2.17;;;;;;;12.15;100.00;155575.47;4999375;28;20049;-78
2022/07/17 04:53:50;;;;;;;9.85;2.08;;;;;;;12.26;100.00;155603.72;5014322;28;20029;-77
2022/07/17 04:56:16;;;;;;;7.05;2.03;;;;;;;12.36;100.00;155628.16;5011346;28;20037;-76
2022/07/17 04:58:41;;;;;;;7.72;1.83;;;;;;;12.46;100.00;155653.84;5018698;28;20060;-77
2022/07/17 05:01:07;;;;;;;8.48;2.17;;;;;;;12.57;100.00;155682.09;5003054;28;20033;-77
2022/07/17 05:03:33;;;;;;;5.53;1.73;;;;;;;12.67;100.00;155706.50;5011305;28;20289;-77
2022/07/17 05:05:58;;;;;;;10.30;1.90;;;;;;;12.72;100.00;155718.09;4996074;28;20092;-78
2022/07/17 05:08:24;;;;;;;8.27;2.15;;;;;;;12.82;100.00;155745.03;4998335;28;20034;-77
2022/07/17 05:10:49;;;;;;;8.15;1.95;;;;;;;12.87;100.00;155756.59;4999728;28;20116;-77
2022/07/17 05:13:15;;;;;;;7.93;1.58;;;;;;;12.88;100.00;155757.88;4992941;28;20408;-77
2022/07/17 05:15:40;;;;;;;9.13;1.80;;;;;;;12.89;100.00;155760.47;5015708;28;20767;-77
2022/07/17 05:18:07;;;;;;;5.57;1.58;;;;;;;12.94;100.00;155774.63;5008116;28;20115;-76
2022/07/17 05:20:32;;;;;;;7.55;1.42;;;;;;;12.99;100.00;155786.16;5020179;28;20038;-76
2022/07/17 05:22:58;;;;;;;5.63;1.77;;;;;;;12.99;100.00;155787.41;5007209;28;20036;-76
2022/07/17 05:25:24;;;;;;;10.73;1.75;;;;;;;13.01;100.00;155791.28;5003106;28;20042;-76
2022/07/17 05:27:50;;;;;;;6.13;1.30;;;;;;;13.02;100.00;155795.16;4995616;28;20483;-77
2022/07/17 05:30:15;;;;;;;6.53;1.60;;;;;;;13.04;100.00;155800.28;5010553;28;20026;-77
2022/07/17 05:32:41;;;;;;;8.07;1.52;;;;;;;13.08;100.00;155808.00;5015153;28;20030;-78
2022/07/17 05:35:06;;;;;;;7.32;1.65;;;;;;;13.05;100.00;155801.56;5008360;28;20095;-77
2022/07/17 05:37:33;;;;;;;6.45;1.70;;;;;;;13.13;100.00;155820.81;5011680;28;20096;-77
2022/07/17 05:39:58;;;;;;;8.18;1.60;;;;;;;13.19;100.00;155836.28;5023706;28;20036;-77
2022/07/17 05:42:24;;;;;;;4.78;1.50;;;;;;;13.21;100.00;155841.41;4984993;28;20046;-78
2022/07/17 05:44:49;;;;;;;7.38;1.58;;;;;;;13.23;100.00;155846.56;4993819;28;20044;-76
2022/07/17 05:47:15;;;;;;;8.27;1.60;;;;;;;13.25;100.00;155852.97;5011056;28;20069;-77
2022/07/17 05:49:40;;;;;;;5.53;1.50;;;;;;;13.36;100.00;155880.00;5030316;28;20466;-75
2022/07/17 05:52:06;;;;;;;7.63;1.70;;;;;;;13.39;100.00;155886.41;4998546;28;20042;-75
2022/07/17 05:54:32;;;;;;;10.32;1.48;;;;;;;13.45;100.00;155901.88;5017412;28;20121;-77
2022/07/17 05:56:59;;;;;;;6.28;1.58;;;;;;;13.48;100.00;155908.28;5001637;28;20046;-77
2022/07/17 05:59:25;;;;;;;10.80;1.73;;;;;;;13.52;100.00;155919.84;5007476;28;20045;-75
2022/07/17 06:01:50;;;;;;;7.15;1.58;;;;;;;13.54;100.00;155925.03;5018952;28;20037;-76
2022/07/17 06:04:16;;;;;;;8.52;1.65;;;;;;;13.56;100.00;155928.84;4987449;28;20130;-77
2022/07/17 06:06:41;;;;;;;7.65;1.60;;;;;;;13.55;100.00;155927.56;5008450;28;20046;-77
2022/07/17 06:09:07;;;;;;;6.28;1.38;;;;;;;13.58;100.00;155935.28;5024799;28;20116;-77
2022/07/17 06:11:33;;;;;;;7.70;1.67;;;;;;;13.77;100.00;155981.56;5004889;28;20125;-76
2022/07/17 06:13:59;;;;;;;6.72;1.73;;;;;;;13.97;100.00;156031.69;4998716;28;20386;-77
2022/07/17 06:16:24;;;;;;;8.02;1.83;;;;;;;14.20;100.00;156090.84;5020401;28;20077;-78
2022/07/17 06:18:49;;;;;;;7.10;1.52;;;;;;;14.44;100.00;156148.69;5009836;28;20053;-77
2022/07/17 06:21:15;;;;;;;8.55;1.50;;;;;;;14.55;100.00;156177.00;5011616;28;20052;-79
2022/07/17 06:23:41;;;;;;;10.10;1.80;;;;;;;14.75;99.67;156227.22;5006932;28;20034;-79
2022/07/17 06:26:07;;;;;;;9.30;1.60;;;;;;;14.61;99.38;156192.47;5003006;28;20030;-77
2022/07/17 06:28:32;;;;;;;7.25;1.40;;;;;;;14.57;100.00;156182.19;5004821;28;20052;-78
2022/07/17 06:30:58;;;;;;;6.00;1.38;;;;;;;14.46;100.00;156155.13;5027388;28;20526;-76
2022/07/17 06:33:23;;;;;;;5.15;1.50;;;;;;;14.52;100.00;156169.25;5008911;28;20040;-75
2022/07/17 06:35:49;;;;;;;6.40;1.10;;;;;;;14.62;100.00;156195.06;5019382;28;20036;-76
2022/07/17 06:38:14;;;;;;;5.85;1.40;;;;;;;14.62;100.00;156195.06;5009460;28;20042;-77
2022/07/17 06:40:40;;;;;;;5.63;1.65;;;;;;;14.74;100.00;156225.91;5011942;28;20136;-76
2022/07/17 06:43:06;;;;;;;8.18;1.67;;;;;;;14.86;100.00;156255.53;5015250;28;20049;-76
2022/07/17 06:45:32;;;;;;;6.95;1.33;;;;;;;14.90;97.81;156265.81;5023850;28;20033;-77
2022/07/17 06:47:57;;;;;;;7.25;1.67;;;;;;;14.84;96.36;156249.06;4996853;28;20119;-76
2022/07/17 06:50:23;;;;;;;8.50;1.40;;;;;;;14.85;99.54;156251.66;5015115;28;20061;-76
2022/07/17 06:52:49;;;;;;;8.98;1.42;;;;;;;14.77;98.75;156233.63;5028761;28;20453;-77
2022/07/17 06:55:14;;;;;;;4.53;1.40;;;;;;;14.82;100.00;156243.91;4990014;28;20048;-75
2022/07/17 06:57:40;;;;;;;8.02;1.67;;;;;;;14.87;100.00;156256.78;5001302;28;20034;-77
2022/07/17 07:00:06;;;;;;;5.85;1.58;;;;;;;14.91;97.90;156268.34;5005426;28;20038;-76
2022/07/17 07:02:32;;;;;;;8.63;1.75;;;;;;;15.13;98.66;156323.69;5015705;28;20504;-76
2022/07/17 07:04:58;;;;;;;10.73;1.70;;;;;;;15.18;96.88;156336.56;5026484;28;20037;-78
2022/07/17 07:07:23;;;;;;;6.82;1.55;;;;;;;15.18;100.00;156335.25;4992767;28;20060;-77
2022/07/17 07:09:49;;;;;;;6.38;1.40;;;;;;;15.29;100.00;156362.28;4995151;28;20037;-76
2022/07/17 07:12:14;;;;;;;7.85;1.55;;;;;;;15.12;100.00;156321.09;5011634;28;20038;-76
2022/07/17 07:14:40;;;;;;;9.60;1.40;;;;;;;15.31;97.88;156368.75;5024352;28;20050;-76
2022/07/17 07:17:05;;;;;;;7.93;1.75;;;;;;;15.61;98.49;156443.34;5010442;28;20022;-75
2022/07/17 07:19:31;;;;;;;10.30;1.70;;;;;;;15.93;92.57;156524.44;5006541;28;20037;-77
2022/07/17 07:21:57;;;;;;;9.63;1.45;;;;;;;16.11;91.84;156568.25;5002216;28;20040;-76
2022/07/17 07:24:22;;;;;;;11.45;1.98;;;;;;;16.41;91.41;156642.94;5005599;28;20410;-75
2022/07/17 07:26:48;;;;;;;5.32;1.20;;;;;;;16.70;92.37;156717.56;5004195;28;20205;-75
2022/07/17 07:29:14;;;;;;;5.85;1.17;;;;;;;16.88;92.79;156762.72;5020442;28;20137;-76
2022/07/17 07:31:39;;;;;;;5.38;1.40;;;;;;;16.71;89.53;156720.16;5006709;28;20056;-75
2022/07/17 07:34:05;;;;;;;9.27;1.88;;;;;;;16.69;86.81;156713.75;4991817;28;20447;-77
2022/07/17 07:36:31;;;;;;;17.52;2.25;;;;;;;16.47;89.97;156659.66;4980272;28;20034;-76
2022/07/17 07:38:56;;;;;;;5.57;1.40;;;;;;;16.67;91.63;156709.88;5009049;28;20430;-76
2022/07/17 07:41:22;;;;;;;4.43;1.30;;;;;;;16.89;88.95;156764.00;5008868;28;20026;-76
2022/07/17 07:43:47;;;;;;;7.68;1.25;;;;;;;17.23;86.54;156850.28;5004306;28;20503;-76
2022/07/17 07:46:13;;;;;;;5.43;1.42;;;;;;;17.09;89.32;156815.50;5009130;28;20033;-76
2022/07/17 07:48:39;;;;;;;6.78;1.15;;;;;;;16.76;89.17;156731.75;5024385;28;20038;-77
2022/07/17 07:51:04;;;;;;;5.15;1.25;;;;;;;16.81;90.41;156744.63;4992765;28;20497;-75
2022/07/17 07:53:30;;;;;;;5.80;1.30;;;;;;;17.10;87.24;156816.78;4999698;28;20042;-75
2022/07/17 07:55:55;;;;;;;7.50;1.60;;;;;;;17.07;88.24;156809.09;4999914;28;20489;-76
2022/07/17 07:58:21;;;;;;;6.53;1.30;;;;;;;17.13;88.70;156824.53;5010815;28;20033;-78
2022/07/17 08:00:47;;;;;;;6.57;1.30;;;;;;;17.51;88.10;156919.84;5012857;28;20018;-76
2022/07/17 08:03:13;;;;;;;8.13;1.65;;;;;;;17.96;82.33;157032.00;5011466;28;20484;-76
2022/07/17 08:05:38;;;;;;;9.93;1.70;;;;;;;18.02;81.31;157048.75;4989753;28;20125;-75
2022/07/17 08:08:04;;;;;;;11.35;1.77;;;;;;;17.52;80.99;156922.44;4991026;28;20045;-76
2022/07/17 08:10:31;;;;;;;8.98;1.33;;;;;;;17.49;83.16;156915.97;5008097;28;20394;-76
2022/07/17 08:12:56;;;;;;;10.15;1.50;;;;;;;17.64;83.29;156953.34;4990150;28;20060;-78
2022/07/17 08:15:22;;;;;;;7.90;1.42;;;;;;;17.67;85.58;156961.09;5004089;28;20907;-76
2022/07/17 08:17:50;;;;;;;5.70;1.27;;;;;;;17.84;82.81;157002.34;5008025;28;20030;-77
2022/07/17 08:20:17;;;;;;;10.18;1.60;;;;;;;18.24;80.27;157104.16;4986696;28;20034;-76
2022/07/17 08:22:44;;;;;;;7.65;1.80;;;;;;;18.08;83.24;157064.25;5005154;28;20103;-77
2022/07/17 08:25:10;;;;;;;6.93;1.25;;;;;;;18.08;81.86;157064.25;5001767;28;20026;-75
2022/07/17 08:27:40;;;;;;;10.13;1.40;;;;;;;18.59;82.12;157190.53;5008319;28;20038;-76
2022/07/17 08:30:07;;;;;;;11.10;1.98;;;;;;;18.96;77.80;157283.41;5010659;28;20033;-76
2022/07/17 08:32:33;;;;;;;7.10;1.30;;;;;;;18.69;79.83;157216.31;5017445;28;20083;-77
2022/07/17 08:34:59;;;;;;;6.93;1.67;;;;;;;18.80;77.99;157243.41;4993798;28;20052;-75
2022/07/17 08:37:24;;;;;;;9.70;1.60;;;;;;;19.05;76.89;157307.91;5026364;28;20053;-77
2022/07/17 08:39:51;;;;;;;6.50;1.05;;;;;;;18.96;76.20;157284.69;5010772;28;20112;-76
2022/07/17 08:42:17;;;;;;;5.85;1.13;;;;;;;18.72;74.94;157222.75;5025206;28;20037;-78
2022/07/17 08:44:43;;;;;;;6.80;1.30;;;;;;;18.43;76.96;157150.56;5002275;28;20034;-77
2022/07/17 08:47:11;;;;;;;8.30;1.15;;;;;;;18.28;78.91;157113.19;5012448;28;20041;-76
2022/07/17 08:49:44;;;;;;;13.23;1.50;;;;;;;18.67;77.90;157211.19;4988405;28;20061;-76
2022/07/17 08:52:10;;;;;;;6.90;1.20;;;;;;;18.85;76.54;157256.31;5010536;28;20034;-76
2022/07/17 08:54:36;;;;;;;6.40;1.45;;;;;;;19.26;76.62;157359.47;5009250;28;20385;-77
2022/07/17 08:57:03;;;;;;;6.63;1.45;;;;;;;19.19;77.26;157342.75;5003795;28;20030;-74
2022/07/17 08:59:29;;;;;;;6.35;1.20;;;;;;;19.23;76.63;157351.72;5008381;28;20041;-76
2022/07/17 09:01:55;;;;;;;6.25;1.30;;;;;;;19.32;75.52;157374.94;5024811;28;20041;-77
2022/07/17 09:04:21;;;;;;;10.40;1.30;;;;;;;19.78;74.19;157489.81;4978209;28;20072;-75
2022/07/17 09:06:58;;;;;;;5.20;1.10;;;;;;;19.96;72.94;157536.22;4991390;28;20052;-76
2022/07/17 09:09:24;;;;;;;6.70;1.70;;;;;;;19.64;75.14;157456.19;5015770;28;20037;-76
2022/07/17 09:11:51;;;;;;;6.85;1.08;;;;;;;19.42;74.00;157399.44;4995715;28;20075;-77
2022/07/17 09:14:19;;;;;;;6.43;1.38;;;;;;;19.60;74.87;157444.59;4998411;28;20065;-76
2022/07/17 09:16:53;;;;;;;8.43;1.35;;;;;;;20.13;74.23;157577.50;5015037;28;20080;-77
2022/07/17 09:19:31;;;;;;;5.38;1.42;;;;;;;20.02;72.74;157551.72;5028166;28;20127;-76
2022/07/17 09:22:12;;;;;;;9.13;1.50;;;;;;;20.11;73.36;157572.34;4995323;28;20036;-77
2022/07/17 09:24:44;;;;;;;6.53;1.45;;;;;;;20.65;72.47;157709.19;5008552;28;20026;-74
2022/07/17 09:27:13;;;;;;;6.20;1.20;;;;;;;20.52;71.83;157676.88;5005831;28;20167;-77
2022/07/17 09:29:51;;;;;;;7.63;1.35;;;;;;;19.76;74.53;157485.94;5016701;28;20034;-76
2022/07/17 09:32:21;;;;;;;6.50;1.70;;;;;;;19.65;72.95;157458.78;5013342;28;20022;-77
2022/07/17 09:34:48;;;;;;;8.50;1.48;;;;;;;20.04;72.45;157555.56;5008219;28;20023;-77
2022/07/17 09:37:14;;;;;;;6.00;1.40;;;;;;;20.52;70.61;157675.59;5007615;28;20041;-76
2022/07/17 09:39:40;;;;;;;8.40;1.50;;;;;;;21.06;68.91;157812.44;5020931;28;20034;-75
2022/07/17 09:42:06;;;;;;;8.20;1.35;;;;;;;20.49;68.91;157669.09;4997916;28;20139;-75
2022/07/17 09:44:32;;;;;;;7.70;1.33;;;;;;;19.99;68.53;157542.69;5009344;28;20121;-76
2022/07/17 09:46:58;;;;;;;7.07;1.33;;;;;;;19.58;68.80;157439.44;5002064;28;20049;-77
2022/07/17 09:49:27;;;;;;;5.47;1.45;;;;;;;19.42;72.90;157399.44;5009812;28;20038;-75
2022/07/17 09:51:53;;;;;;;4.43;1.23;;;;;;;19.92;70.16;157524.63;5010021;28;20042;-76
2022/07/17 09:54:21;;;;;;;6.82;1.13;;;;;;;20.23;69.88;157603.34;5009978;28;20032;-76
2022/07/17 09:56:50;;;;;;;5.82;1.42;;;;;;;20.35;65.71;157633.00;4995092;28;20030;-76
2022/07/17 09:59:17;;;;;;;9.55;1.45;;;;;;;20.40;66.12;157645.94;5013422;28;20159;-77
2022/07/17 10:01:44;;;;;;;7.38;1.05;;;;;;;19.89;69.37;157516.88;5010310;28;20413;-75
2022/07/17 10:04:11;;;;;;;8.65;1.30;;;;;;;19.73;70.39;157478.19;5024970;28;20043;-77
2022/07/17 10:06:38;;;;;;;4.75;0.90;;;;;;;19.96;68.37;157536.22;4995569;28;20044;-78
2022/07/17 10:09:05;;;;;;;6.55;1.30;;;;;;;20.30;67.86;157620.09;5009868;28;20554;-75
2022/07/17 10:11:34;;;;;;;5.15;1.23;;;;;;;20.71;65.37;157724.66;5010996;28;20401;-76
2022/07/17 10:14:10;;;;;;;5.88;1.20;;;;;;;20.91;62.52;157773.75;4984490;28;20031;-76
2022/07/17 10:16:38;;;;;;;6.22;0.80;;;;;;;21.14;62.40;157833.09;5018823;28;20416;-78
2022/07/17 10:19:24;;;;;;;6.55;1.48;;;;;;;21.06;63.08;157811.13;4999478;28;20109;-75
2022/07/17 10:21:54;;;;;;;4.53;1.15;;;;;;;21.14;61.89;157831.81;5017624;28;20029;-76
2022/07/17 10:24:20;;;;;;;4.32;1.10;;;;;;;21.04;63.01;157805.97;5024491;28;20088;-76
2022/07/17 10:26:49;;;;;;;4.80;1.15;;;;;;;21.33;63.26;157879.56;4999965;28;20046;-76
2022/07/17 10:29:35;;;;;;;6.60;1.50;;;;;;;21.02;64.09;157802.13;5004274;28;20057;-76
2022/07/17 10:32:19;;;;;;;4.93;0.85;;;;;;;21.61;64.12;157950.63;5008451;28;20057;-78
2022/07/17 10:34:47;;;;;;;4.45;1.20;;;;;;;22.04;64.24;158059.09;5004744;28;20310;-76
2022/07/17 10:37:24;;;;;;;7.30;1.42;;;;;;;22.31;60.51;158126.31;5007331;28;20052;-76
2022/07/17 10:40:11;;;;;;;4.32;1.23;;;;;;;21.60;60.35;157946.75;4996587;28;20564;-76
2022/07/17 10:42:53;;;;;;;5.63;0.90;;;;;;;21.29;63.98;157869.25;5008972;28;20087;-74
2022/07/17 10:45:21;;;;;;;;;;;;;;;21.51;65.42;157926.09;5008583;28;20901;-76
2022/07/17 10:47:50;;;;;;;6.10;1.00;;;;;;;21.72;61.70;157977.75;5004789;28;19924;-76
2022/07/17 10:50:18;;;;;;;4.43;1.00;;;;;;;22.19;66.79;158096.56;5008500;28;20038;-76
2022/07/17 10:52:44;;;;;;;3.20;0.90;;;;;;;22.41;61.14;158150.84;5020306;28;20049;-77
2022/07/17 10:55:21;;;;;;;5.47;1.38;;;;;;;22.71;59.62;158227.06;5008251;28;20029;-76
2022/07/17 10:57:48;;;;;;;5.82;1.23;;;;;;;22.78;60.09;158243.88;5006861;28;20117;-77
2022/07/17 11:00:15;;;;;;;4.50;0.90;;;;;;;22.81;57.01;158252.91;4982398;28;20100;-74
2022/07/17 11:02:42;;;;;;;9.88;1.35;;;;;;;22.99;58.66;158296.81;5026264;28;20033;-77
2022/07/17 11:05:09;;;;;;;3.58;1.17;;;;;;;23.08;56.27;158321.41;4992980;28;20524;-76
2022/07/17 11:07:35;;;;;;;4.60;1.00;;;;;;;23.11;57.59;158327.88;4998661;28;20069;-77
2022/07/17 11:10:01;;;;;;;7.60;1.40;;;;;;;22.68;58.03;158220.59;5005695;28;20073;-76
2022/07/17 11:12:31;;;;;;;6.55;1.30;;;;;;;22.60;56.49;158199.91;5023694;28;20025;-75
2022/07/17 11:15:04;;;;;;;4.35;1.00;;;;;;;22.57;56.74;158190.91;4990299;28;20038;-75
2022/07/17 11:17:30;;;;;;;5.97;1.15;;;;;;;22.67;55.91;158218.00;5003347;28;20030;-76